Time;durP1;ratioP1;P1;durP2;ratioP2;P2;SDS_P1;SDS_P2;PMS_P1;PMS_P2;Temp;Humidity;BMP_temperature;BMP_pressure;BME280_temperature;BME280_humidity;BME280_pressure;Samples;Min_cycle;Max_cycle;Signal;HPM_P1;HPM_P2
2022/11/16 00:01:46;;;;;;;34.55;19.10;;;;;;;2.47;74.81;100751.00;1730336;81;25724;-62
2022/11/16 00:04:13;;;;;;;31.75;19.02;;;;;;;2.41;74.78;100748.20;1751681;81;27594;-61
2022/11/16 00:06:40;;;;;;;32.38;19.55;;;;;;;2.35;74.60;100744.08;1750360;81;25771;-61
2022/11/16 00:09:21;;;;;;;30.00;17.98;;;;;;;2.29;74.59;100741.77;1737249;81;25780;-61
2022/11/16 00:11:53;;;;;;;32.00;17.55;;;;;;;2.24;74.49;100733.67;1750464;81;26447;-61
2022/11/16 00:14:21;;;;;;;36.25;17.73;;;;;;;2.21;74.45;100736.03;1751180;81;25730;-62
2022/11/16 00:16:48;;;;;;;33.67;18.17;;;;;;;2.15;74.53;100734.55;1748836;81;27517;-61
2022/11/16 00:19:15;;;;;;;33.70;19.20;;;;;;;2.13;74.71;100726.30;1735925;81;25809;-61
2022/11/16 00:21:43;;;;;;;35.83;19.65;;;;;;;2.12;74.87;100720.11;1728716;81;25878;-62
2022/11/16 00:24:16;;;;;;;33.00;19.30;;;;;;;2.12;75.06;100724.09;1742340;81;25804;-61
2022/11/16 00:26:44;;;;;;;32.05;17.98;;;;;;;2.08;75.16;100719.91;1750835;81;25640;-61
2022/11/16 00:29:23;;;;;;;41.77;20.00;;;;;;;2.08;75.34;100719.91;1750532;81;27549;-61
2022/11/16 00:31:51;;;;;;;31.27;17.32;;;;;;;2.08;75.33;100709.30;1749389;81;25755;-61
2022/11/16 00:34:18;;;;;;;35.58;18.65;;;;;;;2.05;75.55;100714.75;1751765;81;25750;-61
2022/11/16 00:36:45;;;;;;;29.60;18.00;;;;;;;2.06;75.66;100706.34;1750705;81;25869;-62
2022/11/16 00:39:16;;;;;;;33.60;18.62;;;;;;;2.05;75.59;100704.63;1751427;81;25727;-61
2022/11/16 00:41:45;;;;;;;29.85;17.10;;;;;;;2.05;75.65;100704.14;1750799;81;28309;-62
2022/11/16 00:44:12;;;;;;;30.82;17.55;;;;;;;2.01;75.47;100707.44;1745609;81;25512;-61
2022/11/16 00:46:41;;;;;;;34.88;18.80;;;;;;;1.97;75.40;100698.39;1715076;81;25779;-61
2022/11/16 00:49:08;;;;;;;34.00;18.35;;;;;;;1.99;75.76;100689.41;1751630;81;26019;-62
2022/11/16 00:51:36;;;;;;;34.45;19.12;;;;;;;2.01;75.79;100692.00;1742844;81;25753;-62
2022/11/16 00:54:05;;;;;;;31.82;19.15;;;;;;;2.01;75.79;100688.86;1750328;81;28520;-61
2022/11/16 00:56:36;;;;;;;36.68;19.05;;;;;;;2.04;75.71;100683.84;1750648;81;25814;-62
2022/11/16 00:59:04;;;;;;;40.88;21.20;;;;;;;2.06;75.73;100677.16;1751005;81;25746;-62
2022/11/16 01:01:33;;;;;;;38.48;20.02;;;;;;;2.08;75.58;100669.48;1750807;81;25822;-61
2022/11/16 01:04:00;;;;;;;31.80;19.23;;;;;;;2.06;75.48;100662.08;1748721;81;25670;-62
2022/11/16 01:06:27;;;;;;;38.10;19.70;;;;;;;2.06;75.47;100659.91;1747504;81;27326;-62
2022/11/16 01:08:54;;;;;;;35.95;19.67;;;;;;;2.08;75.54;100658.88;1722925;82;25725;-61
2022/11/16 01:14:08;;;;;;;40.67;20.97;;;;;;;2.03;75.14;100665.77;1751118;81;25807;-61
2022/11/16 01:16:36;;;;;;;44.18;22.20;;;;;;;1.99;75.17;100651.41;1745480;81;25810;-62
2022/11/16 01:19:04;;;;;;;38.90;21.15;;;;;;;1.99;75.13;100659.38;1728730;82;27448;-62
2022/11/16 01:21:32;;;;;;;38.85;19.77;;;;;;;1.93;74.87;100648.62;1740071;80;25801;-62
2022/11/16 01:23:59;;;;;;;34.58;19.77;;;;;;;1.89;74.66;100645.73;1728638;82;25742;-62
2022/11/16 01:26:27;;;;;;;36.35;20.92;;;;;;;1.84;74.49;100632.72;1728269;82;26726;-62
2022/11/16 01:28:53;;;;;;;39.53;19.87;;;;;;;1.80;74.39;100623.69;1728153;82;25984;-62
2022/11/16 01:31:21;;;;;;;38.73;21.75;;;;;;;1.76;74.38;100634.09;1728470;81;27405;-62
2022/11/16 01:33:49;;;;;;;32.67;18.57;;;;;;;1.71;74.57;100625.06;1733662;81;25650;-62
2022/11/16 01:36:18;;;;;;;36.83;20.20;;;;;;;1.70;74.94;100616.23;1764180;81;25693;-62
2022/11/16 01:38:46;;;;;;;37.85;20.12;;;;;;;1.66;74.93;100608.55;1767257;81;26452;-62
2022/11/16 01:41:21;;;;;;;40.03;19.48;;;;;;;1.62;74.93;100606.51;1738303;81;26207;-62
2022/11/16 01:44:03;;;;;;;36.17;17.82;;;;;;;1.60;75.22;100600.91;1766895;79;29785;-62
2022/11/16 01:46:34;;;;;;;34.58;18.45;;;;;;;1.61;75.36;100594.22;1765845;81;25890;-62
2022/11/16 01:49:07;;;;;;;37.00;19.35;;;;;;;1.68;75.57;100593.39;1767327;79;25758;-62
2022/11/16 01:51:35;;;;;;;37.45;19.35;;;;;;;1.75;75.76;100585.97;1767759;81;25762;-62
2022/11/16 01:54:06;;;;;;;36.90;19.90;;;;;;;1.79;75.73;100578.23;1746960;81;26142;-62
2022/11/16 01:56:37;;;;;;;41.18;19.80;;;;;;;1.84;75.77;100582.33;1761119;81;28412;-62
2022/11/16 01:59:10;;;;;;;43.33;20.70;;;;;;;1.88;75.75;100583.04;1738570;80;25767;-62
2022/11/16 02:01:37;;;;;;;38.38;19.23;;;;;;;1.90;75.53;100588.25;1736812;82;25908;-62
2022/11/16 02:04:05;;;;;;;39.53;19.05;;;;;;;1.92;75.64;100588.55;1736774;81;25782;-62
2022/11/16 02:07:10;;;;;;;43.28;20.32;;;;;;;1.98;75.82;100583.38;1736103;81;26023;-62
2022/11/16 02:10:01;;;;;;;34.50;18.35;;;;;;;2.03;75.76;100577.33;1735166;81;45523;-62
2022/11/16 02:13:02;;;;;;;41.42;19.77;;;;;;;2.04;75.54;100588.33;1702524;82;25843;-61
2022/11/16 02:15:48;;;;;;;35.95;20.35;;;;;;;1.95;75.26;100584.86;1736040;81;25834;-61
2022/11/16 02:18:45;;;;;;;43.28;21.95;;;;;;;1.90;75.43;100582.95;1734671;82;25828;-61
2022/11/16 02:21:41;;;;;;;46.40;21.85;;;;;;;1.91;75.53;100582.00;1735934;82;25721;-61
2022/11/16 02:24:40;;;;;;;46.40;23.02;;;;;;;1.92;75.26;100585.05;1736409;81;27411;-61
2022/11/16 02:27:24;;;;;;;48.45;23.55;;;;;;;1.91;75.14;100576.22;1702913;84;25713;-61
2022/11/16 02:29:52;;;;;;;;;;;;;;;1.90;75.12;100574.98;1754023;81;25679;-61
2022/11/16 02:32:50;;;;;;;50.58;21.87;;;;;;;1.87;75.40;100578.19;1704699;82;25765;-61
2022/11/16 02:35:34;;;;;;;46.02;22.42;;;;;;;1.85;75.31;100585.37;1758238;81;26002;-61
2022/11/16 02:38:08;;;;;;;52.55;23.45;;;;;;;1.85;75.33;100584.52;1757937;81;29042;-61
2022/11/16 02:40:38;;;;;;;46.92;21.90;;;;;;;1.88;75.53;100585.69;1758964;81;25759;-61
2022/11/16 02:43:15;;;;;;;48.33;22.82;;;;;;;1.89;75.80;100588.70;1758983;81;26223;-61
2022/11/16 02:45:47;;;;;;;48.78;22.20;;;;;;;1.91;75.93;100588.64;1759256;81;26548;-61
2022/11/16 02:48:21;;;;;;;46.05;22.75;;;;;;;1.95;76.07;100583.53;1734061;81;25850;-61
2022/11/16 02:50:51;;;;;;;42.80;22.62;;;;;;;2.03;76.30;100574.67;1745321;81;28330;-61
2022/11/16 02:53:21;;;;;;;49.50;20.92;;;;;;;2.12;76.47;100574.16;1743848;81;25795;-61
2022/11/16 02:55:48;;;;;;;38.65;19.50;;;;;;;2.21;76.49;100570.59;1759344;81;25694;-61
2022/11/16 02:58:19;;;;;;;45.70;20.97;;;;;;;2.26;76.69;100563.23;1758537;81;25803;-61
2022/11/16 03:00:58;;;;;;;47.75;21.90;;;;;;;2.38;76.76;100564.33;1744499;81;25702;-61
2022/11/16 03:03:40;;;;;;;40.95;21.62;;;;;;;2.44;76.66;100556.00;1754972;81;27553;-61
2022/11/16 03:06:18;;;;;;;39.00;21.02;;;;;;;2.52;76.78;100556.89;1759010;81;25758;-61
2022/11/16 03:08:51;;;;;;;41.37;20.82;;;;;;;2.60;76.80;100553.31;1742905;81;25838;-61
2022/11/16 03:14:11;;;;;;;39.00;21.90;;;;;;;2.73;76.89;100540.16;1731663;81;25987;-61
2022/11/16 03:16:42;;;;;;;43.48;22.17;;;;;;;2.82;77.06;100550.23;1750940;81;27480;-62
2022/11/16 03:19:13;;;;;;;37.65;21.12;;;;;;;2.92;77.09;100541.23;1734434;82;25892;-61
2022/11/16 03:22:10;;;;;;;45.03;20.95;;;;;;;2.97;76.91;100541.33;1755097;81;25829;-61
2022/11/16 03:24:41;;;;;;;42.30;21.52;;;;;;;3.02;77.02;100533.08;1675894;84;25742;-61
2022/11/16 03:27:25;;;;;;;41.85;22.10;;;;;;;3.03;76.72;100522.84;1741478;80;25716;-62
2022/11/16 03:30:01;;;;;;;41.70;21.12;;;;;;;3.01;76.55;100524.72;1747929;79;28682;-61
2022/11/16 03:32:36;;;;;;;43.23;21.70;;;;;;;3.04;76.72;100521.05;1722303;81;25720;-61
2022/11/16 03:35:25;;;;;;;42.13;22.95;;;;;;;3.06;76.92;100525.31;1763112;80;25750;-62
2022/11/16 03:37:56;;;;;;;42.65;22.93;;;;;;;3.16;77.24;100530.06;1697795;83;25869;-62
2022/11/16 03:40:28;;;;;;;45.28;22.75;;;;;;;3.20;77.29;100524.47;1816649;79;25693;-62
2022/11/16 03:42:59;;;;;;;38.78;21.05;;;;;;;3.21;77.17;100527.52;1815832;78;27530;-62
2022/11/16 03:45:27;;;;;;;43.40;23.40;;;;;;;3.24;77.28;100531.29;1816750;79;25754;-62
2022/11/16 03:47:54;;;;;;;43.70;24.23;;;;;;;3.28;77.15;100525.30;1791087;78;25813;-62
2022/11/16 03:50:23;;;;;;;46.60;24.87;;;;;;;3.29;76.98;100524.36;1780762;78;25774;-62
2022/11/16 03:52:50;;;;;;;43.15;23.12;;;;;;;3.31;76.96;100517.64;1787687;79;25682;-62
2022/11/16 03:55:18;;;;;;;41.00;23.32;;;;;;;3.31;76.88;100506.52;1807959;78;28265;-62
2022/11/16 03:57:45;;;;;;;45.85;24.95;;;;;;;3.31;76.63;100499.86;1814847;78;25716;-62
2022/11/16 04:00:14;;;;;;;53.23;26.30;;;;;;;3.29;76.58;100490.67;1814277;78;25804;-62
2022/11/16 04:02:41;;;;;;;51.28;27.60;;;;;;;3.26;76.45;100493.99;1815304;78;25796;-62
2022/11/16 04:24:48;;;;;;;44.65;25.12;;;;;;;3.25;77.14;100472.34;1816639;79;25689;-62
2022/11/16 04:30:03;;;;;;;47.10;24.82;;;;;;;3.31;77.49;100469.29;1797210;78;25778;-62
2022/11/16 04:38:03;;;;;;;53.15;25.52;;;;;;;3.47;77.73;100453.22;1791686;79;25905;-62
2022/11/16 04:40:32;;;;;;;51.13;26.50;;;;;;;3.51;77.90;100444.08;1792395;80;25790;-62
2022/11/16 04:43:02;;;;;;;52.98;26.52;;;;;;;3.58;77.98;100450.73;1790649;80;26511;-62
2022/11/16 04:48:19;;;;;;;47.95;24.10;;;;;;;3.72;78.39;100444.48;1791646;79;27499;-62
2022/11/16 04:50:48;;;;;;;54.73;26.70;;;;;;;3.80;78.24;100437.34;1790395;79;25643;-62
2022/11/16 04:53:16;;;;;;;60.60;28.45;;;;;;;3.85;78.16;100441.91;1768825;79;25816;-62
2022/11/16 04:55:49;;;;;;;58.78;27.32;;;;;;;3.91;78.35;100451.27;1797099;79;26656;-62
2022/11/16 04:58:20;;;;;;;60.17;25.20;;;;;;;3.99;78.43;100455.60;1770780;79;25755;-62
2022/11/16 05:00:48;;;;;;;48.80;25.50;;;;;;;4.03;78.17;100457.61;1791723;79;27448;-62
2022/11/16 05:03:16;;;;;;;50.78;26.07;;;;;;;4.06;78.23;100448.07;1791068;79;25713;-62
2022/11/16 05:05:44;;;;;;;52.45;24.92;;;;;;;4.12;78.18;100440.16;1792435;80;25802;-62
2022/11/16 05:08:11;;;;;;;54.50;25.40;;;;;;;4.13;77.89;100423.23;1789230;79;25799;-62
2022/11/16 05:10:38;;;;;;;57.83;26.73;;;;;;;4.15;77.86;100414.17;1781143;79;25764;-62
2022/11/16 05:13:08;;;;;;;59.25;29.45;;;;;;;4.17;77.73;100409.61;1791154;79;28575;-62
2022/11/16 05:15:34;;;;;;;62.08;31.57;;;;;;;4.18;77.78;100411.31;1792050;79;25881;-62
2022/11/16 05:18:02;;;;;;;66.70;31.50;;;;;;;4.20;77.73;100408.55;1766358;79;25779;-62
2022/11/16 05:26:02;;;;;;;66.05;28.07;;;;;;;4.24;77.75;100415.38;1763145;80;27463;-62
2022/11/16 05:28:29;;;;;;;67.30;30.32;;;;;;;4.28;77.70;100415.53;1786213;79;27325;-61
2022/11/16 05:30:56;;;;;;;58.80;28.98;;;;;;;4.29;77.55;100409.74;1783648;79;25829;-62
2022/11/16 05:33:24;;;;;;;74.65;30.80;;;;;;;4.32;77.91;100417.04;1763646;78;25762;-61
2022/11/16 05:35:51;;;;;;;82.30;31.90;;;;;;;4.34;77.89;100415.13;1781218;80;26478;-62
2022/11/16 05:38:19;;;;;;;68.62;30.52;;;;;;;4.39;77.84;100416.98;1785459;79;27470;-62
2022/11/16 05:40:47;;;;;;;70.70;33.25;;;;;;;4.44;77.84;100425.16;1737978;80;25768;-62
2022/11/16 05:43:15;;;;;;;68.05;30.48;;;;;;;4.48;78.10;100416.82;1784008;80;25809;-61
2022/11/16 05:45:43;;;;;;;68.10;32.58;;;;;;;4.54;77.98;100421.75;1783423;80;25964;-61
2022/11/16 05:48:11;;;;;;;78.00;34.98;;;;;;;4.54;77.93;100425.74;1768936;80;25772;-61
2022/11/16 05:50:37;;;;;;;76.62;34.27;;;;;;;4.54;77.88;100421.75;1784805;79;27426;-62
2022/11/16 05:53:09;;;;;;;74.03;34.25;;;;;;;4.53;77.68;100419.17;1768742;80;25783;-62
2022/11/16 05:55:36;;;;;;;72.60;34.13;;;;;;;4.51;77.52;100425.94;1732395;82;25770;-62
2022/11/16 05:58:03;;;;;;;71.97;34.65;;;;;;;4.49;77.50;100421.19;1782706;79;26560;-62
2022/11/16 06:00:30;;;;;;;81.53;37.08;;;;;;;4.45;77.10;100413.05;1781605;80;25722;-62
2022/11/16 06:02:59;;;;;;;78.55;35.98;;;;;;;4.41;77.31;100412.04;1767221;80;27528;-62
2022/11/16 06:05:27;;;;;;;84.22;34.90;;;;;;;4.38;77.26;100412.62;1785728;79;25758;-62
2022/11/16 06:07:54;;;;;;;78.45;33.02;;;;;;;4.37;77.24;100413.57;1778513;80;25744;-62
2022/11/16 06:10:22;;;;;;;76.62;35.35;;;;;;;4.37;77.17;100412.23;1761999;81;25858;-62
2022/11/16 06:12:50;;;;;;;73.78;34.73;;;;;;;4.35;77.20;100403.49;1782728;80;25718;-62
2022/11/16 06:15:18;;;;;;;84.80;34.30;;;;;;;4.36;77.19;100408.36;1783778;80;28433;-62
2022/11/16 06:17:45;;;;;;;69.72;32.63;;;;;;;4.35;77.29;100405.32;1782294;80;25777;-62
2022/11/16 06:20:13;;;;;;;74.75;32.48;;;;;;;4.31;77.35;100406.01;1772608;80;25694;-62
2022/11/16 06:22:40;;;;;;;74.42;33.88;;;;;;;4.29;77.64;100392.44;1752722;80;25862;-62
2022/11/16 06:25:09;;;;;;;73.05;33.75;;;;;;;4.30;77.83;100400.80;1725941;83;25875;-62
2022/11/16 06:27:43;;;;;;;71.50;34.53;;;;;;;4.32;78.19;100390.88;1724346;81;27653;-63
2022/11/16 06:30:09;;;;;;;68.00;34.15;;;;;;;4.32;78.43;100383.75;1690843;84;26642;-62
2022/11/16 06:32:36;;;;;;;72.00;35.03;;;;;;;4.33;78.36;100381.92;1679405;83;25837;-62
2022/11/16 06:35:05;;;;;;;85.22;33.83;;;;;;;4.34;78.44;100388.50;1774265;79;25771;-62
2022/11/16 06:37:33;;;;;;;78.83;35.83;;;;;;;4.41;78.86;100388.91;1721373;81;25850;-62
2022/11/16 06:40:00;;;;;;;68.75;34.90;;;;;;;4.49;78.98;100381.23;1767189;81;27470;-62
2022/11/16 06:42:27;;;;;;;69.75;35.13;;;;;;;4.54;79.01;100377.80;1747384;80;25869;-62
2022/11/16 06:44:54;;;;;;;74.32;33.42;;;;;;;4.59;79.09;100384.59;1755393;80;25778;-62
2022/11/16 06:47:23;;;;;;;72.47;34.25;;;;;;;4.65;79.27;100386.85;1767370;80;26056;-61
2022/11/16 06:49:49;;;;;;;76.82;33.95;;;;;;;4.73;79.37;100387.62;1767666;81;26070;-62
2022/11/16 06:52:18;;;;;;;74.00;34.65;;;;;;;4.78;79.11;100382.34;1767264;81;28234;-62
2022/11/16 06:54:45;;;;;;;72.58;34.15;;;;;;;4.83;79.00;100380.69;1767563;81;26463;-61
2022/11/16 06:57:12;;;;;;;80.80;33.95;;;;;;;4.88;79.07;100376.36;1767874;80;25615;-62
2022/11/16 06:59:39;;;;;;;81.05;34.15;;;;;;;4.96;79.34;100384.66;1767714;81;26779;-62
2022/11/16 07:02:08;;;;;;;75.57;36.03;;;;;;;5.01;79.14;100382.05;1767561;81;25785;-62
2022/11/16 07:04:37;;;;;;;77.95;34.53;;;;;;;5.08;79.37;100378.47;1767521;81;27508;-61
2022/11/16 07:07:04;;;;;;;75.57;35.92;;;;;;;5.19;79.34;100381.68;1767829;81;25892;-62
2022/11/16 07:09:32;;;;;;;78.12;36.65;;;;;;;5.25;79.21;100383.05;1738786;81;25712;-62
2022/11/16 07:12:00;;;;;;;77.72;36.58;;;;;;;5.30;79.15;100376.89;1737863;82;25885;-62
2022/11/16 07:14:28;;;;;;;71.67;34.43;;;;;;;5.35;79.08;100375.22;1737443;82;27244;-62
2022/11/16 07:16:56;;;;;;;77.65;35.40;;;;;;;5.37;78.82;100377.30;1737601;82;27492;-62
2022/11/16 07:19:23;;;;;;;71.07;34.08;;;;;;;5.42;78.79;100367.16;1736882;82;26105;-64
2022/11/16 07:21:50;;;;;;;76.45;34.20;;;;;;;5.47;78.84;100367.17;1769901;81;25709;-62
2022/11/16 07:24:17;;;;;;;83.37;36.88;;;;;;;5.51;78.75;100361.61;1770046;79;25833;-62
2022/11/16 07:26:44;;;;;;;68.78;34.15;;;;;;;5.54;78.81;100364.91;1770131;81;25782;-62
2022/11/16 07:29:14;;;;;;;75.83;36.25;;;;;;;5.60;78.87;100351.59;1769899;81;27438;-63
2022/11/16 07:31:43;;;;;;;80.47;34.83;;;;;;;5.63;78.81;100344.20;1769342;80;26562;-62
2022/11/16 07:34:14;;;;;;;82.47;35.65;;;;;;;5.66;78.56;100338.28;1707708;81;26140;-62
2022/11/16 07:36:43;;;;;;;77.37;36.60;;;;;;;5.59;78.23;100348.55;1767361;79;25817;-62
2022/11/16 07:39:10;;;;;;;84.72;37.95;;;;;;;5.54;78.28;100351.56;1770088;80;25817;-62
2022/11/16 07:41:38;;;;;;;87.33;38.80;;;;;;;5.58;78.63;100345.05;1769634;81;27441;-62
2022/11/16 07:44:09;;;;;;;82.70;40.55;;;;;;;5.64;78.84;100346.41;1769336;81;25729;-62
2022/11/16 07:46:36;;;;;;;77.45;38.48;;;;;;;5.66;78.53;100347.12;1769894;80;25699;-62
2022/11/16 07:49:03;;;;;;;87.97;38.70;;;;;;;5.70;78.73;100341.94;1769985;80;27035;-62
2022/11/16 07:51:32;;;;;;;85.77;40.00;;;;;;;5.71;78.75;100346.31;1767081;81;25681;-62
2022/11/16 07:54:05;;;;;;;87.95;40.38;;;;;;;5.75;78.80;100343.77;1735330;80;27482;-62
2022/11/16 07:56:32;;;;;;;85.80;35.68;;;;;;;5.78;78.74;100346.70;1730466;82;25794;-62
2022/11/16 07:59:00;;;;;;;86.12;38.55;;;;;;;5.81;78.73;100343.79;1730994;82;25737;-62
2022/11/16 08:01:29;;;;;;;82.45;37.45;;;;;;;5.83;78.69;100343.69;1730461;82;25878;-62
2022/11/16 08:03:56;;;;;;;81.55;38.90;;;;;;;5.86;78.75;100340.77;1702828;82;25743;-61
2022/11/16 08:06:27;;;;;;;79.85;40.55;;;;;;;5.89;78.78;100333.38;1730860;82;27430;-62
2022/11/16 08:08:54;;;;;;;75.28;37.48;;;;;;;5.95;78.63;100324.92;1736342;81;25794;-62
2022/11/16 08:11:23;;;;;;;85.65;39.20;;;;;;;5.99;78.50;100320.23;1738558;82;25747;-62
2022/11/16 08:13:50;;;;;;;78.70;37.33;;;;;;;6.05;78.73;100322.41;1708163;82;26610;-62
2022/11/16 08:16:21;;;;;;;83.95;39.13;;;;;;;6.20;78.97;100329.73;1738840;81;25651;-62
2022/11/16 08:18:50;;;;;;;85.95;40.58;;;;;;;6.36;78.97;100321.39;1753000;81;27485;-62
2022/11/16 08:21:18;;;;;;;87.57;40.45;;;;;;;6.48;78.85;100303.53;1769168;79;25779;-62
2022/11/16 08:23:45;;;;;;;81.05;39.88;;;;;;;6.63;78.58;100297.93;1769975;80;25770;-62
2022/11/16 08:26:19;;;;;;;87.02;43.98;;;;;;;6.81;78.39;100289.77;1770034;80;26680;-62
2022/11/16 08:28:50;;;;;;;91.25;45.05;;;;;;;6.94;78.03;100288.80;1769728;80;25654;-62
2022/11/16 08:31:23;;;;;;;95.10;45.92;;;;;;;7.04;77.55;100283.03;1740177;81;27444;-62
2022/11/16 08:33:52;;;;;;;84.80;40.73;;;;;;;7.12;77.32;100287.77;1769694;79;25961;-62
2022/11/16 08:36:21;;;;;;;75.42;38.42;;;;;;;7.20;77.19;100292.86;1770107;81;25802;-62
2022/11/16 08:38:51;;;;;;;88.03;42.33;;;;;;;7.27;77.01;100285.16;1770151;81;25818;-62
2022/11/16 08:41:19;;;;;;;89.42;42.17;;;;;;;7.35;76.85;100284.03;1738585;81;25742;-62
2022/11/16 08:43:49;;;;;;;91.00;43.33;;;;;;;7.54;76.62;100289.19;1769927;80;27472;-62
2022/11/16 08:46:17;;;;;;;85.32;41.42;;;;;;;7.68;76.00;100285.35;1770073;80;26102;-62
2022/11/16 08:48:46;;;;;;;85.77;39.50;;;;;;;7.91;75.88;100278.05;1769501;80;25808;-62
2022/11/16 08:51:17;;;;;;;86.25;39.95;;;;;;;8.15;75.59;100279.62;1769939;81;25988;-62
2022/11/16 08:53:46;;;;;;;85.73;41.30;;;;;;;8.44;75.08;100279.75;1768605;80;25796;-62
2022/11/16 08:56:17;;;;;;;86.00;43.83;;;;;;;8.67;74.99;100274.72;1767691;81;27489;-62
2022/11/16 08:58:45;;;;;;;83.92;42.58;;;;;;;9.07;74.22;100275.16;1767053;81;25741;-62
2022/11/16 09:01:17;;;;;;;76.47;39.65;;;;;;;9.28;74.09;100274.20;1767730;81;25810;-62
2022/11/16 09:03:45;;;;;;;87.90;41.65;;;;;;;9.30;72.98;100266.35;1766896;81;26437;-62
2022/11/16 09:06:13;;;;;;;82.53;40.15;;;;;;;9.21;72.10;100272.56;1767647;81;25809;-62
2022/11/16 09:08:42;;;;;;;93.85;43.95;;;;;;;9.17;71.78;100273.34;1749705;81;27456;-63
2022/11/16 09:11:17;;;;;;;83.37;39.15;;;;;;;9.15;71.54;100263.23;1738016;82;25782;-62
2022/11/16 09:13:46;;;;;;;75.40;38.70;;;;;;;9.30;70.94;100258.30;1737504;82;25739;-61
2022/11/16 09:16:15;;;;;;;71.17;34.18;;;;;;;9.67;71.00;100254.06;1738086;81;25924;-62
2022/11/16 09:18:47;;;;;;;72.47;33.45;;;;;;;9.93;70.22;100252.95;1750537;81;25799;-62
2022/11/16 09:21:21;;;;;;;71.00;34.58;;;;;;;10.25;69.22;100253.09;1738270;81;27528;-62
2022/11/16 09:23:50;;;;;;;60.75;32.03;;;;;;;10.47;68.50;100245.17;1728083;83;25772;-62
2022/11/16 09:26:20;;;;;;;66.90;32.83;;;;;;;10.61;68.22;100245.19;1729142;83;25785;-62
2022/11/16 09:28:56;;;;;;;69.37;33.92;;;;;;;11.00;68.61;100231.13;1728905;83;25833;-61
2022/11/16 09:31:27;;;;;;;74.53;36.95;;;;;;;11.51;68.11;100225.56;1728962;83;25805;-62
2022/11/16 09:33:57;;;;;;;65.35;34.65;;;;;;;11.72;67.26;100231.95;1728380;82;28148;-61
2022/11/16 09:36:28;;;;;;;65.72;36.23;;;;;;;12.05;66.66;100220.58;1734868;82;25850;-61
2022/11/16 09:38:56;;;;;;;73.17;39.42;;;;;;;12.20;66.43;100223.02;1737811;82;25778;-61
2022/11/16 09:41:55;;;;;;;84.25;44.38;;;;;;;12.17;65.33;100234.63;1737905;82;26426;-62
2022/11/16 09:44:39;;;;;;;77.85;42.45;;;;;;;12.00;63.94;100239.06;1737622;81;25717;-62
2022/11/16 09:47:34;;;;;;;83.25;42.38;;;;;;;11.71;62.09;100232.95;1737481;81;27413;-62
2022/11/16 09:50:05;;;;;;;67.53;36.20;;;;;;;11.41;62.88;100227.49;1737441;81;25790;-62
2022/11/16 09:52:45;;;;;;;67.25;34.03;;;;;;;11.21;62.19;100228.13;1737980;82;25767;-62
2022/11/16 09:55:42;;;;;;;72.45;35.68;;;;;;;10.98;60.92;100226.41;1709268;83;25719;-62
2022/11/16 09:58:23;;;;;;;77.60;35.73;;;;;;;10.60;60.48;100226.48;1711848;83;25747;-62
2022/11/16 10:00:58;;;;;;;71.28;35.60;;;;;;;10.20;61.80;100224.44;1711942;83;28282;-61
2022/11/16 10:03:27;;;;;;;79.95;38.15;;;;;;;10.07;62.36;100222.59;1712342;83;25658;-62
2022/11/16 10:06:04;;;;;;;70.42;34.90;;;;;;;9.92;63.10;100203.39;1712072;83;25755;-62
2022/11/16 10:08:47;;;;;;;76.30;37.40;;;;;;;9.69;63.85;100208.61;1725917;82;25828;-62
2022/11/16 10:11:44;;;;;;;69.67;35.60;;;;;;;9.54;64.61;100204.17;1727925;83;25800;-62
2022/11/16 10:14:22;;;;;;;82.67;40.05;;;;;;;9.47;64.63;100182.92;1755166;81;27507;-62
2022/11/16 10:17:21;;;;;;;79.07;38.60;;;;;;;9.40;65.21;100181.81;1754165;81;25698;-62
2022/11/16 10:20:12;;;;;;;70.22;35.20;;;;;;;9.39;65.55;100182.29;1738930;81;25811;-62
2022/11/16 10:23:28;;;;;;;86.80;40.33;;;;;;;9.45;65.67;100183.55;1741043;81;25797;-62
2022/11/16 10:26:02;;;;;;;78.35;38.45;;;;;;;9.53;65.05;100178.31;1715018;82;25698;-62
2022/11/16 10:28:50;;;;;;;78.47;39.85;;;;;;;9.64;65.32;100170.58;1740024;82;28550;-62
2022/11/16 10:31:58;;;;;;;78.00;39.10;;;;;;;9.72;65.49;100164.50;1741549;82;25521;-62
2022/11/16 10:34:51;;;;;;;77.37;38.42;;;;;;;9.76;65.64;100166.39;1741266;82;25757;-62
2022/11/16 10:37:20;;;;;;;77.55;37.28;;;;;;;9.61;65.41;100162.83;1741433;82;25785;-62
2022/11/16 10:39:50;;;;;;;80.67;37.65;;;;;;;9.50;65.37;100162.99;1710677;83;25697;-62
2022/11/16 10:42:30;;;;;;;72.15;36.53;;;;;;;9.42;65.44;100164.20;1722795;83;27471;-62
2022/11/16 10:45:11;;;;;;;80.32;38.05;;;;;;;9.30;65.51;100163.52;1741588;81;25772;-62
2022/11/16 10:47:48;;;;;;;73.52;36.42;;;;;;;9.19;65.65;100153.28;1722608;83;25859;-62
2022/11/16 10:50:32;;;;;;;76.45;36.00;;;;;;;9.08;65.89;100148.06;1742162;81;25857;-62
2022/11/16 10:53:00;;;;;;;83.65;38.53;;;;;;;8.98;66.16;100154.78;1721101;81;25808;-62
2022/11/16 10:55:28;;;;;;;77.05;36.48;;;;;;;8.93;66.44;100157.02;1714688;83;27516;-62
2022/11/16 10:58:01;;;;;;;83.20;38.28;;;;;;;8.86;66.70;100150.05;1714550;83;25795;-62
2022/11/16 11:00:50;;;;;;;83.55;38.85;;;;;;;8.84;67.05;100148.47;1689016;83;25817;-62
2022/11/16 11:03:31;;;;;;;81.50;39.03;;;;;;;8.82;67.57;100139.23;1714220;83;26624;-62
2022/11/16 11:05:58;;;;;;;82.82;39.40;;;;;;;8.85;67.77;100142.98;1714774;83;26105;-62
2022/11/16 11:08:30;;;;;;;80.85;38.55;;;;;;;8.84;67.82;100156.05;1722318;82;27303;-62
2022/11/16 11:12:36;;;;;;;88.97;38.67;;;;;;;8.83;68.12;100157.03;1762989;80;25744;-62
2022/11/16 11:13:33;;;;;;;83.25;38.48;;;;;;;8.79;68.20;100152.91;1762505;81;25724;-62
2022/11/16 11:16:15;;;;;;;83.70;37.50;;;;;;;8.70;68.20;100153.27;1762864;80;25888;-62
2022/11/16 11:18:42;;;;;;;85.83;39.83;;;;;;;8.64;68.40;100143.11;1758748;81;26403;-62
2022/11/16 11:21:18;;;;;;;84.97;38.83;;;;;;;8.58;68.44;100141.83;1741827;81;27505;-62
2022/11/16 11:23:50;;;;;;;84.07;38.67;;;;;;;8.55;68.68;100139.92;1714254;82;25847;-62
2022/11/16 11:26:37;;;;;;;84.40;39.03;;;;;;;8.53;69.05;100137.88;1750826;81;25763;-62
2022/11/16 11:29:25;;;;;;;91.85;39.08;;;;;;;8.57;69.46;100143.30;1741870;82;25806;-62
2022/11/16 11:32:03;;;;;;;86.72;40.40;;;;;;;8.54;69.40;100139.06;1742085;82;25770;-63
2022/11/16 11:34:43;;;;;;;86.10;42.00;;;;;;;8.63;69.23;100145.92;1741471;82;27491;-61
2022/11/16 11:37:23;;;;;;;89.47;41.63;;;;;;;8.65;69.43;100147.47;1742295;82;25832;-63
2022/11/16 11:40:10;;;;;;;96.50;43.85;;;;;;;8.66;69.07;100142.97;1742026;82;25833;-63
2022/11/16 11:42:40;;;;;;;79.17;39.13;;;;;;;8.65;69.09;100139.92;1742285;82;25809;-63
2022/11/16 11:45:10;;;;;;;88.92;40.88;;;;;;;8.58;68.81;100133.79;1742038;81;26152;-63
2022/11/16 11:47:54;;;;;;;81.95;39.05;;;;;;;8.51;68.83;100137.16;1716973;82;28274;-63
2022/11/16 11:50:53;;;;;;;81.57;37.83;;;;;;;8.45;69.22;100139.86;1742135;82;25717;-61
2022/11/16 11:53:43;;;;;;;81.47;37.58;;;;;;;8.37;69.56;100124.48;1759585;81;25903;-62
2022/11/16 11:56:13;;;;;;;89.03;38.35;;;;;;;8.41;69.85;100133.09;1768218;80;25868;-62
2022/11/16 11:58:41;;;;;;;86.55;38.85;;;;;;;8.49;70.20;100126.58;1768253;80;25658;-62
2022/11/16 12:01:40;;;;;;;85.35;39.10;;;;;;;8.54;70.16;100128.84;1768284;81;27436;-62
2022/11/16 12:04:13;;;;;;;84.05;39.35;;;;;;;8.55;70.05;100122.50;1767691;81;25751;-62
2022/11/16 12:07:18;;;;;;;83.87;36.85;;;;;;;8.66;70.27;100118.33;1768252;81;25746;-62
2022/11/16 12:10:09;;;;;;;77.45;37.80;;;;;;;8.77;70.01;100110.16;1734134;82;25902;-62
2022/11/16 12:13:05;;;;;;;81.90;39.30;;;;;;;8.92;70.31;100112.41;1733795;81;25780;-62
2022/11/16 12:15:43;;;;;;;79.97;36.40;;;;;;;9.02;70.28;100100.34;1725499;82;28441;-62
2022/11/16 12:18:51;;;;;;;82.75;37.93;;;;;;;9.09;69.88;100096.09;1737410;81;25923;-61
2022/11/16 12:21:29;;;;;;;86.32;38.17;;;;;;;9.11;69.83;100093.25;1744323;81;25943;-62
2022/11/16 12:24:18;;;;;;;81.28;38.63;;;;;;;9.10;69.78;100099.64;1741396;82;25801;-62
2022/11/16 12:26:53;;;;;;;79.85;39.23;;;;;;;9.07;69.73;100096.72;1741740;82;25782;-62